Time;durP1;ratioP1;P1;durP2;ratioP2;P2;SDS_P1;SDS_P2;PMS_P1;PMS_P2;Temp;Humidity;BMP_temperature;BMP_pressure;BME280_temperature;BME280_humidity;BME280_pressure;Samples;Min_cycle;Max_cycle;Signal;HPM_P1;HPM_P2
2021/11/24 00:00:45;;;;;;;2.05;0.40;;;15.20;71.90;;;;;;4839030;29;20062;-70
2021/11/24 00:03:11;;;;;;;1.92;0.45;;;15.20;70.90;;;;;;4838939;29;20427;-70
2021/11/24 00:05:37;;;;;;;0.90;0.22;;;15.20;71.50;;;;;;4839296;29;20060;-70
2021/11/24 00:08:04;;;;;;;0.73;0.20;;;15.20;71.60;;;;;;4840644;29;20121;-70
2021/11/24 00:10:32;;;;;;;2.75;0.40;;;15.20;71.90;;;;;;4840714;29;20125;-70
2021/11/24 00:12:58;;;;;;;2.55;0.50;;;15.20;72.10;;;;;;4826294;29;20049;-70
2021/11/24 00:15:24;;;;;;;1.95;0.40;;;15.10;72.00;;;;;;4840520;29;20054;-70
2021/11/24 00:17:50;;;;;;;2.30;0.30;;;15.10;71.80;;;;;;4838724;29;20054;-69
2021/11/24 00:20:16;;;;;;;0.93;0.30;;;15.10;72.00;;;;;;4839964;29;20049;-70
2021/11/24 00:22:42;;;;;;;1.40;0.43;;;15.10;72.20;;;;;;4838646;29;20061;-70
2021/11/24 00:25:09;;;;;;;2.50;0.40;;;15.10;72.10;;;;;;4824416;29;20052;-70
2021/11/24 00:27:35;;;;;;;3.33;0.30;;;15.10;72.40;;;;;;4841270;29;20069;-69
2021/11/24 00:30:02;;;;;;;1.08;0.13;;;15.10;71.60;;;;;;4824929;29;20062;-70
2021/11/24 00:32:27;;;;;;;0.88;0.13;;;15.10;72.10;;;;;;4826548;29;20124;-70
2021/11/24 00:34:53;;;;;;;1.55;0.20;;;15.10;71.60;;;;;;4842262;29;20153;-70
2021/11/24 00:37:19;;;;;;;2.63;0.30;;;15.10;72.10;;;;;;4822670;29;20050;-70
2021/11/24 00:39:45;;;;;;;1.83;0.30;;;15.10;72.10;;;;;;4837678;29;20122;-70
2021/11/24 00:42:11;;;;;;;1.33;0.20;;;15.10;71.80;;;;;;4836315;29;20058;-70
2021/11/24 00:44:36;;;;;;;0.70;0.25;;;15.00;71.40;;;;;;4839741;29;20058;-69
2021/11/24 00:47:02;;;;;;;0.90;0.20;;;15.00;72.00;;;;;;4838914;29;20053;-70
2021/11/24 00:49:28;;;;;;;2.70;0.20;;;15.00;71.60;;;;;;4840356;29;20060;-70
2021/11/24 00:51:54;;;;;;;1.15;0.10;;;15.00;71.60;;;;;;4840735;29;20054;-70
2021/11/24 00:54:19;;;;;;;1.40;0.17;;;15.00;71.80;;;;;;4839480;29;20045;-69
2021/11/24 00:56:45;;;;;;;1.90;0.32;;;15.00;71.40;;;;;;4839234;29;20053;-69
2021/11/24 00:59:11;;;;;;;0.90;0.20;;;14.90;70.80;;;;;;4837220;29;20046;-70
2021/11/24 01:01:37;;;;;;;2.53;0.30;;;14.90;70.20;;;;;;4837100;29;20478;-69
2021/11/24 01:04:02;;;;;;;1.23;0.30;;;14.90;71.40;;;;;;4838432;29;20138;-69
2021/11/24 01:06:28;;;;;;;1.85;0.20;;;14.90;71.30;;;;;;4837871;29;20046;-69
2021/11/24 01:08:54;;;;;;;0.65;0.10;;;14.90;71.70;;;;;;4840340;29;20060;-69
2021/11/24 01:11:20;;;;;;;1.60;0.30;;;14.90;71.60;;;;;;4840192;29;20046;-70
2021/11/24 01:13:47;;;;;;;1.85;0.25;;;14.90;70.50;;;;;;4821635;29;20406;-69
2021/11/24 01:16:13;;;;;;;1.05;0.28;;;14.80;69.30;;;;;;4840002;29;20054;-69
2021/11/24 01:18:39;;;;;;;1.10;0.15;;;14.70;69.50;;;;;;4838960;29;20371;-69
2021/11/24 01:21:05;;;;;;;2.20;0.30;;;14.60;69.20;;;;;;4838187;29;20382;-69
2021/11/24 01:23:31;;;;;;;0.80;0.20;;;14.70;70.10;;;;;;4833625;29;20053;-69
2021/11/24 01:25:56;;;;;;;1.85;0.32;;;14.70;70.30;;;;;;4837225;29;20050;-69
2021/11/24 01:28:22;;;;;;;0.28;0.13;;;14.70;70.20;;;;;;4840087;29;20136;-70
2021/11/24 01:30:48;;;;;;;0.73;0.10;;;14.70;70.70;;;;;;4839442;29;20042;-69
2021/11/24 01:33:15;;;;;;;2.03;0.40;;;14.70;70.50;;;;;;4841660;29;20140;-69
2021/11/24 01:35:41;;;;;;;2.03;0.25;;;14.70;71.40;;;;;;4839393;29;20415;-69
2021/11/24 01:38:07;;;;;;;1.85;0.30;;;14.70;71.60;;;;;;4833880;29;20058;-69
2021/11/24 01:40:33;;;;;;;1.67;0.22;;;14.70;71.50;;;;;;4837492;29;20110;-69
2021/11/24 01:42:58;;;;;;;0.82;0.28;;;14.80;71.30;;;;;;4836139;29;20061;-69
2021/11/24 01:45:24;;;;;;;0.98;0.20;;;14.80;71.40;;;;;;4837517;29;20066;-70
2021/11/24 01:47:51;;;;;;;1.30;0.20;;;14.80;71.50;;;;;;4837688;29;20468;-70
2021/11/24 01:50:19;;;;;;;1.30;0.20;;;14.90;71.60;;;;;;4837151;29;20129;-69
2021/11/24 01:52:46;;;;;;;2.63;0.43;;;14.80;71.60;;;;;;4839173;29;20042;-69
2021/11/24 01:55:14;;;;;;;0.88;0.20;;;14.80;71.20;;;;;;4836095;29;20038;-70
2021/11/24 01:57:43;;;;;;;1.05;0.32;;;14.80;71.50;;;;;;4840268;29;20050;-70
2021/11/24 02:00:10;;;;;;;0.77;0.35;;;14.80;70.50;;;;;;4839499;29;20152;-70
2021/11/24 02:02:35;;;;;;;1.77;0.20;;;14.80;71.40;;;;;;4834246;29;20046;-70
2021/11/24 02:05:01;;;;;;;1.00;0.32;;;14.80;71.60;;;;;;4825507;29;20053;-70
2021/11/24 02:07:27;;;;;;;2.35;0.32;;;14.80;71.60;;;;;;4825184;29;20191;-70
2021/11/24 02:09:53;;;;;;;0.85;0.10;;;14.90;71.30;;;;;;4825278;29;20129;-70
2021/11/24 02:12:19;;;;;;;2.45;0.60;;;14.80;71.00;;;;;;4824954;29;20058;-70
2021/11/24 02:14:45;;;;;;;0.32;0.13;;;14.90;71.50;;;;;;4825120;29;20129;-70
2021/11/24 02:17:15;;;;;;;2.10;0.30;;;14.80;71.40;;;;;;4825397;29;20050;-70
2021/11/24 02:19:41;;;;;;;1.42;0.40;;;14.90;71.40;;;;;;4825025;29;20161;-70
2021/11/24 02:22:07;;;;;;;1.80;0.40;;;14.80;71.00;;;;;;4825114;29;20050;-69
2021/11/24 02:24:35;;;;;;;1.52;0.28;;;14.80;71.40;;;;;;4824894;29;20324;-70
2021/11/24 02:27:03;;;;;;;0.75;0.30;;;14.80;71.40;;;;;;4825951;29;20054;-70
2021/11/24 02:29:29;;;;;;;1.08;0.25;;;14.90;71.40;;;;;;4828339;29;20126;-70
2021/11/24 02:31:57;;;;;;;0.55;0.20;;;14.90;71.50;;;;;;4828442;29;20046;-70
2021/11/24 02:34:24;;;;;;;1.20;0.30;;;14.80;70.60;;;;;;4828411;29;20107;-70
2021/11/24 02:36:50;;;;;;;1.65;0.40;;;14.80;70.70;;;;;;4827610;29;20057;-70
2021/11/24 02:39:17;;;;;;;0.57;0.20;;;14.70;70.70;;;;;;4828111;29;20099;-70
2021/11/24 02:41:43;;;;;;;2.83;0.30;;;14.70;70.80;;;;;;4827863;29;20493;-70
2021/11/24 02:44:17;;;;;;;0.55;0.22;;;14.70;71.40;;;;;;4828267;29;20057;-70
2021/11/24 02:46:43;;;;;;;1.08;0.30;;;14.80;71.10;;;;;;4828147;29;20050;-70
2021/11/24 02:49:09;;;;;;;0.93;0.30;;;14.80;71.30;;;;;;4827979;29;20046;-70
2021/11/24 02:51:35;;;;;;;0.70;0.30;;;14.70;71.10;;;;;;4828133;29;20054;-70
2021/11/24 02:54:01;;;;;;;1.17;0.30;;;14.70;69.80;;;;;;4827858;29;20147;-70
2021/11/24 02:56:26;;;;;;;1.70;0.40;;;14.70;70.50;;;;;;4828094;29;20050;-69
2021/11/24 02:58:52;;;;;;;0.82;0.20;;;14.70;70.60;;;;;;4828163;29;20054;-70
2021/11/24 03:01:18;;;;;;;0.98;0.30;;;14.70;71.80;;;;;;4827872;29;20447;-70
2021/11/24 03:03:43;;;;;;;1.38;0.30;;;14.60;70.20;;;;;;4827710;29;20046;-70
2021/11/24 03:06:09;;;;;;;0.70;0.30;;;14.70;71.10;;;;;;4827602;29;20046;-70
2021/11/24 03:08:35;;;;;;;2.63;0.20;;;14.70;71.30;;;;;;4827712;29;20060;-70
2021/11/24 03:11:00;;;;;;;2.05;0.30;;;14.70;71.00;;;;;;4827733;29;20050;-70
2021/11/24 03:13:26;;;;;;;1.95;0.30;;;14.70;70.70;;;;;;4827470;29;20050;-70
2021/11/24 03:15:52;;;;;;;1.60;0.30;;;14.60;70.70;;;;;;4827756;29;20472;-70
2021/11/24 03:18:18;;;;;;;1.35;0.20;;;14.60;71.10;;;;;;4827396;29;20046;-70
2021/11/24 03:20:43;;;;;;;1.58;0.30;;;14.70;71.10;;;;;;4827844;29;20139;-70
2021/11/24 03:23:09;;;;;;;1.48;0.20;;;14.70;71.40;;;;;;4826944;29;20054;-70
2021/11/24 03:25:35;;;;;;;1.00;0.35;;;14.70;71.20;;;;;;4827256;29;20131;-70
2021/11/24 03:28:01;;;;;;;1.70;0.30;;;14.70;70.90;;;;;;4826916;29;20062;-71
2021/11/24 03:30:28;;;;;;;1.70;0.20;;;14.70;71.40;;;;;;4827591;29;20050;-70
2021/11/24 03:32:56;;;;;;;1.20;0.30;;;14.60;70.60;;;;;;4820612;29;20042;-70
2021/11/24 03:35:24;;;;;;;1.15;0.30;;;14.60;69.60;;;;;;4827368;29;20054;-70
2021/11/24 03:37:52;;;;;;;1.08;0.20;;;14.50;70.30;;;;;;4826875;29;20379;-70
2021/11/24 03:40:20;;;;;;;1.60;0.30;;;14.50;70.60;;;;;;4827377;29;20047;-70
2021/11/24 03:42:47;;;;;;;1.85;0.40;;;14.50;70.70;;;;;;4827147;29;20054;-70
2021/11/24 03:45:18;;;;;;;0.40;0.10;;;14.50;70.10;;;;;;4827319;29;20042;-70
2021/11/24 03:47:44;;;;;;;3.00;0.35;;;14.50;69.40;;;;;;4827128;29;20072;-70
2021/11/24 03:50:11;;;;;;;0.45;0.20;;;14.50;70.40;;;;;;4827039;29;20046;-70
2021/11/24 03:52:37;;;;;;;1.10;0.30;;;14.50;71.20;;;;;;4827167;29;20042;-70
2021/11/24 03:55:05;;;;;;;1.42;0.45;;;14.50;70.50;;;;;;4826879;29;20042;-70
2021/11/24 03:57:30;;;;;;;1.30;0.45;;;14.50;70.40;;;;;;4826792;29;20077;-70
2021/11/24 03:59:56;;;;;;;1.10;0.20;;;14.50;70.00;;;;;;4826863;29;20054;-70
2021/11/24 04:02:22;;;;;;;4.20;0.50;;;14.50;69.90;;;;;;4819471;29;20046;-70
2021/11/24 04:04:48;;;;;;;1.40;0.30;;;14.50;70.30;;;;;;4826908;29;20065;-70
2021/11/24 04:07:14;;;;;;;1.77;0.35;;;14.50;70.50;;;;;;4826742;29;20350;-70
2021/11/24 04:09:39;;;;;;;0.73;0.30;;;14.50;70.50;;;;;;4826994;29;20059;-70
2021/11/24 04:12:06;;;;;;;0.88;0.20;;;14.50;70.80;;;;;;4827142;29;20050;-70
2021/11/24 04:14:32;;;;;;;1.25;0.20;;;14.50;70.70;;;;;;4826469;29;20133;-70
2021/11/24 04:16:57;;;;;;;1.17;0.57;;;14.50;70.20;;;;;;4826324;29;20180;-70
2021/11/24 04:19:23;;;;;;;2.55;0.30;;;14.50;70.90;;;;;;4826563;29;20053;-70
2021/11/24 04:21:49;;;;;;;1.42;0.40;;;14.50;70.00;;;;;;4826601;29;20057;-71
2021/11/24 04:24:15;;;;;;;1.27;0.40;;;14.50;70.40;;;;;;4826633;29;20046;-70
2021/11/24 04:26:40;;;;;;;0.77;0.25;;;14.50;70.60;;;;;;4826195;29;20042;-70
2021/11/24 04:29:06;;;;;;;1.65;0.30;;;14.50;70.70;;;;;;4826482;29;20080;-70
2021/11/24 04:31:32;;;;;;;2.00;0.30;;;14.50;69.80;;;;;;4826330;29;20046;-70
2021/11/24 04:33:58;;;;;;;3.20;0.35;;;14.50;70.00;;;;;;4826513;29;20401;-70
2021/11/24 04:36:24;;;;;;;0.98;0.30;;;14.50;70.00;;;;;;4826523;29;20119;-70
2021/11/24 04:38:49;;;;;;;2.28;0.30;;;14.50;70.20;;;;;;4825845;29;20046;-70
2021/11/24 04:41:15;;;;;;;2.90;0.30;;;14.50;70.40;;;;;;4826810;29;20056;-70
2021/11/24 04:43:44;;;;;;;2.38;0.40;;;14.50;70.60;;;;;;4826181;29;20058;-70
2021/11/24 04:46:12;;;;;;;2.72;0.30;;;14.50;70.40;;;;;;4826465;29;20355;-70
2021/11/24 04:48:38;;;;;;;1.17;0.30;;;14.50;70.10;;;;;;4826273;29;20057;-67
2021/11/24 04:51:04;;;;;;;2.25;0.60;;;14.40;69.70;;;;;;4825289;29;20486;-69
2021/11/24 04:53:30;;;;;;;3.33;0.50;;;14.50;70.30;;;;;;4826573;29;20038;-69
2021/11/24 04:55:56;;;;;;;4.75;1.00;;;14.50;69.20;;;;;;4809990;29;20050;-68
2021/11/24 04:58:22;;;;;;;3.38;0.90;;;14.60;68.00;;;;;;4826276;29;20446;-69
2021/11/24 05:00:48;;;;;;;4.03;0.65;;;14.60;67.20;;;;;;4807209;29;20125;-69
2021/11/24 05:03:14;;;;;;;1.52;0.40;;;14.60;66.20;;;;;;4823896;29;20439;-73
2021/11/24 05:05:39;;;;;;;5.18;0.68;;;14.60;66.10;;;;;;4826086;29;20126;-70
2021/11/24 05:08:06;;;;;;;2.60;0.90;;;14.60;66.20;;;;;;4825402;29;20046;-70
2021/11/24 05:10:32;;;;;;;2.65;0.50;;;14.60;66.80;;;;;;4809159;29;20050;-69
2021/11/24 05:12:58;;;;;;;2.25;0.30;;;14.70;66.20;;;;;;4825730;29;20073;-71
2021/11/24 05:15:32;;;;;;;4.60;0.50;;;14.90;65.70;;;;;;4809058;29;20054;-70
2021/11/24 05:18:02;;;;;;;10.80;0.43;;;15.20;65.60;;;;;;4825967;29;20159;-71
2021/11/24 05:20:31;;;;;;;4.43;0.45;;;15.60;64.40;;;;;;4808533;29;20050;-72
2021/11/24 05:23:00;;;;;;;1.70;0.52;;;15.80;65.80;;;;;;4809427;29;20058;-73
2021/11/24 05:25:27;;;;;;;3.88;0.50;;;16.00;65.80;;;;;;4825442;29;20054;-74
2021/11/24 05:27:55;;;;;;;2.35;0.50;;;16.20;65.90;;;;;;4808776;29;20076;-72
2021/11/24 05:30:22;;;;;;;1.98;0.40;;;16.00;65.80;;;;;;4825481;29;20054;-74
2021/11/24 05:32:50;;;;;;;2.13;0.52;;;16.20;66.60;;;;;;4825454;29;20062;-74
2021/11/24 05:35:21;;;;;;;3.63;0.55;;;16.30;67.90;;;;;;4825413;29;20050;-75
2021/11/24 05:37:48;;;;;;;7.65;1.05;;;16.30;67.50;;;;;;4809154;29;20371;-75
2021/11/24 05:40:14;;;;;;;4.97;0.82;;;16.40;68.00;;;;;;4808842;29;20105;-71
2021/11/24 05:42:46;;;;;;;5.60;1.35;;;16.40;68.40;;;;;;4809151;29;20074;-74
2021/11/24 05:45:15;;;;;;;6.00;0.80;;;16.50;68.70;;;;;;4825156;29;20050;-76
2021/11/24 05:47:54;;;;;;;6.40;0.70;;;16.60;68.80;;;;;;4825093;29;20494;-74
2021/11/24 05:50:21;;;;;;;5.90;1.10;;;16.70;69.10;;;;;;4825333;29;20054;-75
2021/11/24 05:52:48;;;;;;;5.10;0.57;;;16.80;69.30;;;;;;4825077;29;20115;-74
2021/11/24 05:55:13;;;;;;;4.00;0.80;;;16.90;69.20;;;;;;4825183;29;20042;-71
2021/11/24 05:57:39;;;;;;;5.28;0.98;;;17.10;69.20;;;;;;4825330;29;20058;-71
2021/11/24 06:00:06;;;;;;;6.80;0.80;;;17.20;69.30;;;;;;4825129;29;20470;-72
2021/11/24 06:02:31;;;;;;;6.68;1.00;;;17.30;69.40;;;;;;4828228;29;20454;-71
2021/11/24 06:04:57;;;;;;;8.85;1.08;;;17.30;69.20;;;;;;4828624;29;20050;-72
2021/11/24 06:07:23;;;;;;;3.97;0.80;;;17.40;69.10;;;;;;4828734;29;20051;-71
2021/11/24 06:09:49;;;;;;;5.53;0.82;;;17.50;69.00;;;;;;4828315;29;20069;-71
2021/11/24 06:12:15;;;;;;;7.47;0.98;;;17.50;69.00;;;;;;4828388;29;20051;-71
2021/11/24 06:14:41;;;;;;;7.88;0.82;;;17.60;69.30;;;;;;4828511;29;20057;-73
2021/11/24 06:17:07;;;;;;;6.95;0.77;;;17.60;69.20;;;;;;4825743;29;20568;-75
2021/11/24 06:19:33;;;;;;;5.10;0.80;;;17.60;68.90;;;;;;4827665;29;20132;-75
2021/11/24 06:21:58;;;;;;;5.25;0.80;;;17.60;69.00;;;;;;4828635;29;20062;-76
2021/11/24 06:24:24;;;;;;;6.10;0.80;;;17.60;69.00;;;;;;4828169;29;20470;-77
2021/11/24 06:26:50;;;;;;;7.80;0.70;;;17.60;69.10;;;;;;4811459;29;20077;-78
2021/11/24 06:29:15;;;;;;;6.40;0.73;;;17.50;68.90;;;;;;4828308;29;20110;-77
2021/11/24 06:31:41;;;;;;;4.13;0.60;;;17.50;69.00;;;;;;4812414;29;20138;-77
2021/11/24 06:34:07;;;;;;;8.48;1.15;;;17.50;69.00;;;;;;4812491;29;20061;-78
2021/11/24 06:36:32;;;;;;;5.85;0.80;;;17.50;69.00;;;;;;4811957;29;20061;-78
2021/11/24 06:38:58;;;;;;;8.65;1.13;;;17.50;68.90;;;;;;4797603;29;20054;-80
2021/11/24 06:41:26;;;;;;;6.05;1.05;;;17.50;68.90;;;;;;4812330;29;20054;-78
2021/11/24 06:43:52;;;;;;;8.13;0.93;;;17.50;68.80;;;;;;4811900;29;20054;-75
2021/11/24 06:46:17;;;;;;;6.25;0.98;;;17.40;67.00;;;;;;4828330;29;20035;-78
2021/11/24 06:48:43;;;;;;;5.38;0.60;;;17.40;68.60;;;;;;4796888;29;20416;-77
2021/11/24 06:51:09;;;;;;;8.48;0.93;;;17.40;68.80;;;;;;4827917;29;20137;-75
2021/11/24 06:53:35;;;;;;;10.10;1.38;;;17.30;69.00;;;;;;4827863;29;20101;-71
2021/11/24 06:56:00;;;;;;;6.68;0.98;;;17.40;68.60;;;;;;4808524;29;20452;-72
2021/11/24 06:58:26;;;;;;;9.45;1.33;;;17.40;67.90;;;;;;4827976;29;20057;-71
2021/11/24 07:00:52;;;;;;;6.85;1.10;;;17.30;66.70;;;;;;4827532;29;20070;-73
2021/11/24 07:03:18;;;;;;;12.45;1.30;;;17.20;66.70;;;;;;4828028;29;20466;-71
2021/11/24 07:05:43;;;;;;;8.38;1.20;;;17.20;66.70;;;;;;4827894;29;20519;-72
2021/11/24 07:08:09;;;;;;;13.20;1.67;;;17.20;66.70;;;;;;4827215;29;20051;-72
2021/11/24 07:10:35;;;;;;;6.85;1.13;;;17.30;66.70;;;;;;4827705;29;20082;-73
2021/11/24 07:13:01;;;;;;;7.63;1.42;;;17.30;66.60;;;;;;4827436;29;20368;-73
2021/11/24 07:15:27;;;;;;;11.50;1.92;;;17.40;66.40;;;;;;4827497;29;20050;-73
2021/11/24 07:17:53;;;;;;;8.95;1.00;;;17.50;66.20;;;;;;4827734;29;20121;-74
2021/11/24 07:20:19;;;;;;;15.02;1.02;;;17.50;66.00;;;;;;4827220;29;20129;-73
2021/11/24 07:22:45;;;;;;;10.82;1.58;;;17.60;65.80;;;;;;4827499;29;20129;-73
2021/11/24 07:25:13;;;;;;;11.88;1.17;;;17.70;65.70;;;;;;4827474;29;20058;-73
2021/11/24 07:27:39;;;;;;;7.40;1.27;;;17.70;65.40;;;;;;4827376;29;20450;-73
2021/11/24 07:30:07;;;;;;;9.95;1.30;;;17.80;65.10;;;;;;4827383;29;20042;-73
2021/11/24 07:32:33;;;;;;;6.28;1.48;;;17.80;65.10;;;;;;4827033;29;20440;-73
2021/11/24 07:35:01;;;;;;;8.45;0.80;;;17.80;65.00;;;;;;4827518;29;20062;-73
2021/11/24 07:37:26;;;;;;;6.15;1.15;;;17.80;65.00;;;;;;4827275;29;20050;-73
2021/11/24 07:39:52;;;;;;;6.30;0.73;;;17.90;64.90;;;;;;4827736;29;20107;-73
2021/11/24 07:42:18;;;;;;;6.05;0.98;;;18.00;64.70;;;;;;4827469;29;20082;-74
2021/11/24 07:44:44;;;;;;;6.55;1.25;;;18.00;64.60;;;;;;4827202;29;20098;-73
2021/11/24 07:47:12;;;;;;;6.88;1.23;;;18.00;64.50;;;;;;4827424;29;20054;-73
2021/11/24 07:49:38;;;;;;;6.38;0.90;;;18.00;64.60;;;;;;4827240;29;20450;-73
2021/11/24 07:52:03;;;;;;;8.25;1.15;;;17.90;64.50;;;;;;4826851;29;20053;-73
2021/11/24 07:54:29;;;;;;;3.95;0.75;;;18.00;64.30;;;;;;4827059;29;20068;-74
2021/11/24 07:56:55;;;;;;;3.83;0.80;;;18.00;64.40;;;;;;4826788;29;20055;-73
2021/11/24 07:59:21;;;;;;;6.00;1.10;;;18.00;64.40;;;;;;4827112;29;20103;-74
2021/11/24 08:01:46;;;;;;;8.23;1.17;;;18.00;64.50;;;;;;4810768;29;20112;-74
2021/11/24 08:04:12;;;;;;;7.38;1.10;;;17.90;64.70;;;;;;4827022;29;20726;-74
2021/11/24 08:06:38;;;;;;;6.80;1.52;;;17.90;64.50;;;;;;4826734;29;20352;-74
2021/11/24 08:09:04;;;;;;;8.68;1.38;;;17.90;64.70;;;;;;4826377;29;20050;-74
2021/11/24 08:11:29;;;;;;;5.85;0.90;;;17.80;64.70;;;;;;4826898;29;20466;-73
2021/11/24 08:13:56;;;;;;;7.53;0.70;;;17.70;65.00;;;;;;4826760;29;20050;-74
2021/11/24 08:16:21;;;;;;;5.70;1.00;;;17.70;65.30;;;;;;4826498;29;20129;-75
2021/11/24 08:18:47;;;;;;;5.88;0.95;;;17.60;65.30;;;;;;4826739;29;20126;-74
2021/11/24 08:21:13;;;;;;;6.03;0.80;;;17.60;65.40;;;;;;4826502;29;20054;-75
2021/11/24 08:23:39;;;;;;;2.97;0.65;;;17.50;65.50;;;;;;4826098;29;20081;-75
2021/11/24 08:26:04;;;;;;;8.70;1.48;;;17.40;65.50;;;;;;4826485;29;20054;-75
2021/11/24 08:28:30;;;;;;;4.80;0.50;;;17.40;65.70;;;;;;4827102;29;20094;-74
2021/11/24 08:30:56;;;;;;;8.73;1.05;;;17.40;66.00;;;;;;4827262;29;20054;-75
2021/11/24 08:33:22;;;;;;;7.53;0.65;;;17.30;65.90;;;;;;4826514;29;20367;-75
2021/11/24 08:35:48;;;;;;;7.43;0.80;;;17.30;66.00;;;;;;4826761;29;20050;-75
2021/11/24 08:38:15;;;;;;;13.52;1.13;;;17.20;66.00;;;;;;4826909;29;20050;-74
2021/11/24 08:40:41;;;;;;;7.07;0.93;;;17.20;66.20;;;;;;4827021;29;20065;-73
2021/11/24 08:43:07;;;;;;;5.43;0.65;;;17.20;65.80;;;;;;4826937;29;20102;-73
2021/11/24 08:45:39;;;;;;;8.30;1.00;;;17.10;65.90;;;;;;5154309;27;20385;-73
2021/11/24 08:48:06;;;;;;;12.85;1.20;;;17.10;65.80;;;;;;5133493;28;20096;-73
2021/11/24 08:50:32;;;;;;;9.00;1.27;;;17.10;66.00;;;;;;5133188;28;20087;-73
2021/11/24 08:52:59;;;;;;;11.82;1.17;;;17.10;65.70;;;;;;5133207;28;20043;-72
2021/11/24 08:55:25;;;;;;;8.32;0.82;;;17.10;66.00;;;;;;5133509;28;20104;-73
2021/11/24 08:57:51;;;;;;;6.10;0.80;;;17.10;66.70;;;;;;5133649;28;20051;-73
2021/11/24 09:00:20;;;;;;;6.93;0.98;;;17.10;65.40;;;;;;5133286;28;20514;-72
2021/11/24 09:02:50;;;;;;;8.73;0.80;;;17.10;64.70;;;;;;5133088;28;20046;-72
2021/11/24 09:05:16;;;;;;;8.73;1.00;;;17.10;64.60;;;;;;5133035;28;20398;-72
2021/11/24 09:07:41;;;;;;;6.57;1.13;;;17.10;64.60;;;;;;5131925;28;20085;-72
2021/11/24 09:10:08;;;;;;;11.40;1.00;;;17.10;64.90;;;;;;5097189;28;20086;-71
2021/11/24 09:12:33;;;;;;;13.13;1.08;;;17.10;64.80;;;;;;5126801;28;20143;-71
2021/11/24 09:14:59;;;;;;;8.77;1.20;;;17.00;64.90;;;;;;5113999;28;20506;-72
2021/11/24 09:17:25;;;;;;;5.90;0.75;;;17.00;65.70;;;;;;5098075;28;20118;-73
2021/11/24 09:19:51;;;;;;;6.00;0.80;;;17.00;65.20;;;;;;5125024;28;20064;-72
2021/11/24 09:22:17;;;;;;;7.88;1.30;;;17.00;65.00;;;;;;5119924;28;20398;-72
2021/11/24 09:24:44;;;;;;;8.27;1.13;;;16.90;65.30;;;;;;5125290;28;20039;-71
2021/11/24 09:27:18;;;;;;;5.82;0.60;;;17.00;65.50;;;;;;5096083;28;20051;-72
2021/11/24 09:29:47;;;;;;;5.72;0.98;;;16.90;65.60;;;;;;5113005;28;20044;-72
2021/11/24 09:32:13;;;;;;;6.57;0.80;;;16.90;65.70;;;;;;5119759;28;20040;-72
2021/11/24 09:34:39;;;;;;;7.75;0.93;;;16.90;65.70;;;;;;5119946;28;20072;-72
2021/11/24 09:37:05;;;;;;;5.40;0.98;;;16.90;65.90;;;;;;5120159;28;20124;-72
2021/11/24 09:39:31;;;;;;;7.57;1.23;;;16.80;66.40;;;;;;5112961;28;20190;-72
2021/11/24 09:42:03;;;;;;;4.13;0.68;;;16.80;66.00;;;;;;5126595;28;20059;-72
2021/11/24 09:44:29;;;;;;;5.75;0.77;;;16.80;65.80;;;;;;5120165;28;20060;-72
2021/11/24 09:46:56;;;;;;;6.55;0.70;;;16.80;65.70;;;;;;5119392;28;20086;-72
2021/11/24 09:49:22;;;;;;;3.38;0.57;;;16.80;66.10;;;;;;5126886;28;20053;-72
2021/11/24 09:51:50;;;;;;;5.35;0.95;;;16.80;66.00;;;;;;5120461;28;20039;-71
2021/11/24 09:54:16;;;;;;;3.78;0.47;;;16.80;65.80;;;;;;5116931;28;20404;-72
2021/11/24 09:56:45;;;;;;;5.10;0.93;;;16.80;66.00;;;;;;5110086;28;20477;-72
2021/11/24 09:59:11;;;;;;;3.13;0.55;;;16.80;65.80;;;;;;5108856;28;20100;-72
2021/11/24 10:01:38;;;;;;;2.17;0.88;;;16.80;66.20;;;;;;5107715;28;20384;-72
2021/11/24 10:04:09;;;;;;;4.10;0.90;;;16.80;66.10;;;;;;5105831;28;20040;-71
2021/11/24 10:06:39;;;;;;;3.63;0.80;;;16.80;65.20;;;;;;5112593;28;20048;-72
2021/11/24 10:09:06;;;;;;;1.45;0.50;;;16.80;64.70;;;;;;5100374;28;20117;-72
2021/11/24 10:11:32;;;;;;;3.95;0.88;;;16.80;65.00;;;;;;5103174;28;20047;-72
2021/11/24 10:13:59;;;;;;;2.50;0.82;;;16.80;64.90;;;;;;5113811;28;20115;-72
2021/11/24 10:16:33;;;;;;;3.92;0.98;;;16.80;65.20;;;;;;5101480;28;20036;-73
2021/11/24 10:19:04;;;;;;;5.85;0.60;;;16.80;65.10;;;;;;5100221;28;20059;-72
2021/11/24 10:21:31;;;;;;;3.58;0.95;;;16.80;65.40;;;;;;5101258;28;20051;-72
2021/11/24 10:24:04;;;;;;;5.38;0.50;;;16.90;65.50;;;;;;5110271;28;20047;-71
2021/11/24 10:26:37;;;;;;;7.33;0.90;;;16.90;65.70;;;;;;5105183;28;20473;-72
2021/11/24 10:29:08;;;;;;;5.28;1.13;;;16.90;65.60;;;;;;5113286;28;20289;-72
2021/11/24 10:31:38;;;;;;;2.67;0.57;;;16.90;65.60;;;;;;5105241;28;20073;-72
2021/11/24 10:34:11;;;;;;;8.15;0.93;;;16.90;65.60;;;;;;5104327;28;20031;-72
2021/11/24 10:39:36;;;;;;;4.30;1.05;;;16.80;65.60;;;;;;5108008;28;20103;-72
2021/11/24 10:42:09;;;;;;;2.70;0.65;;;16.80;65.80;;;;;;5102853;28;20245;-72
2021/11/24 10:44:35;;;;;;;2.80;0.50;;;16.80;65.80;;;;;;5113251;28;20117;-72
2021/11/24 10:47:03;;;;;;;3.55;0.88;;;16.80;65.80;;;;;;5105172;28;20362;-72
2021/11/24 10:49:43;;;;;;;5.35;0.75;;;16.70;65.80;;;;;;5113274;28;20047;-72
2021/11/24 10:52:24;;;;;;;1.05;0.30;;;16.70;65.80;;;;;;5102084;28;20048;-71
2021/11/24 10:55:01;;;;;;;1.92;0.38;;;16.70;65.90;;;;;;5105805;28;20187;-72
2021/11/24 10:57:28;;;;;;;3.30;0.60;;;16.60;65.90;;;;;;5105112;28;20036;-72
2021/11/24 11:00:09;;;;;;;2.17;0.57;;;16.60;66.10;;;;;;5106674;28;20047;-72
2021/11/24 11:02:40;;;;;;;2.35;0.60;;;16.60;66.10;;;;;;5107392;28;20048;-71
2021/11/24 11:05:10;;;;;;;1.15;0.60;;;16.50;66.10;;;;;;5078691;28;20087;-72
2021/11/24 11:07:39;;;;;;;2.05;0.35;;;16.50;66.20;;;;;;5102106;28;20144;-71
2021/11/24 11:10:23;;;;;;;3.40;0.38;;;16.50;66.30;;;;;;5097268;28;20193;-71
2021/11/24 11:12:55;;;;;;;2.22;0.65;;;16.30;63.20;;;;;;5112547;28;20131;-72
2021/11/24 11:15:28;;;;;;;2.75;0.65;;;16.10;66.00;;;;;;5099460;28;20130;-74
2021/11/24 11:18:12;;;;;;;3.25;0.57;;;16.20;66.60;;;;;;5108086;28;20040;-71
2021/11/24 11:20:41;;;;;;;2.13;0.63;;;16.20;66.60;;;;;;5100957;28;20404;-72
2021/11/24 11:23:15;;;;;;;3.88;0.70;;;16.20;66.80;;;;;;5113934;28;20114;-71
2021/11/24 11:25:42;;;;;;;;;;;16.20;66.60;;;;;;5102650;28;20055;-71
2021/11/24 11:28:09;;;;;;;3.22;0.75;;;16.20;66.50;;;;;;5112440;28;19948;-71
2021/11/24 11:30:36;;;;;;;2.20;0.60;;;16.10;66.90;;;;;;5103921;28;20142;-71
2021/11/24 11:33:02;;;;;;;1.48;0.50;;;16.20;66.90;;;;;;5102552;28;20067;-71
2021/11/24 11:35:28;;;;;;;1.95;0.70;;;16.20;67.20;;;;;;5104697;28;20086;-71
2021/11/24 11:37:54;;;;;;;4.70;1.30;;;16.20;66.90;;;;;;5103801;28;20044;-71
2021/11/24 11:40:21;;;;;;;3.35;0.57;;;16.10;66.90;;;;;;5108369;28;20039;-71
2021/11/24 11:42:49;;;;;;;4.43;0.80;;;16.20;67.10;;;;;;5098747;28;20119;-72
2021/11/24 11:45:16;;;;;;;2.75;0.63;;;16.20;67.50;;;;;;5106641;28;20370;-71
2021/11/24 11:47:50;;;;;;;2.47;0.63;;;16.10;66.60;;;;;;5105589;28;20157;-71
2021/11/24 11:50:38;;;;;;;5.72;0.80;;;16.20;66.70;;;;;;5100740;28;20406;-72
2021/11/24 11:53:15;;;;;;;5.10;0.75;;;16.30;66.40;;;;;;5100005;28;20043;-71
2021/11/24 11:55:41;;;;;;;4.65;0.63;;;16.40;66.80;;;;;;5105823;28;20123;-72
2021/11/24 11:58:27;;;;;;;3.50;0.60;;;16.50;66.60;;;;;;5085926;28;20139;-71
2021/11/24 12:01:11;;;;;;;4.15;0.75;;;16.50;66.40;;;;;;5111702;28;20466;-71
2021/11/24 12:03:57;;;;;;;2.35;0.60;;;16.60;66.30;;;;;;5103344;28;20437;-71
2021/11/24 12:06:26;;;;;;;4.82;0.47;;;16.80;66.20;;;;;;5100276;28;20496;-72
2021/11/24 12:09:20;;;;;;;2.55;0.47;;;16.80;66.00;;;;;;5105485;28;20334;-71
2021/11/24 12:12:01;;;;;;;3.83;0.68;;;16.90;65.90;;;;;;5103555;28;20055;-71
2021/11/24 12:14:40;;;;;;;5.85;0.77;;;16.90;65.70;;;;;;5100113;28;20052;-71
2021/11/24 12:20:16;;;;;;;0.90;0.38;;;17.00;65.60;;;;;;5111194;28;20051;-71
2021/11/24 12:22:53;;;;;;;2.83;0.73;;;17.00;65.60;;;;;;5108435;28;20496;-71
2021/11/24 12:25:25;;;;;;;3.22;0.50;;;17.00;65.70;;;;;;5114395;28;20058;-71
2021/11/24 12:27:54;;;;;;;3.50;0.65;;;17.00;65.90;;;;;;5065704;28;20048;-71
2021/11/24 12:33:14;;;;;;;3.47;0.52;;;16.90;65.90;;;;;;5102067;28;20047;-71
2021/11/24 12:35:46;;;;;;;3.45;0.70;;;16.90;66.00;;;;;;5102618;28;20465;-72
2021/11/24 12:38:13;;;;;;;3.72;0.70;;;16.90;66.10;;;;;;5111126;28;20055;-71
2021/11/24 12:40:43;;;;;;;3.38;0.60;;;16.90;66.10;;;;;;5112958;28;20137;-70
2021/11/24 12:43:16;;;;;;;2.00;0.88;;;16.90;65.90;;;;;;5108075;28;20066;-70
2021/11/24 12:46:02;;;;;;;2.95;0.70;;;16.90;65.60;;;;;;5084874;28;20056;-70
2021/11/24 12:48:48;;;;;;;3.90;0.85;;;16.90;64.90;;;;;;5110611;28;20054;-70
2021/11/24 12:51:21;;;;;;;4.07;0.90;;;16.90;64.20;;;;;;5095698;28;20067;-70
2021/11/24 12:54:13;;;;;;;2.63;0.70;;;16.90;63.90;;;;;;5112023;28;20043;-70
2021/11/24 12:56:45;;;;;;;2.83;0.45;;;16.90;63.50;;;;;;5100670;28;20048;-71